Little Chicago, Wisconsin
Current Conditions -  °F | °C
As of 12:54 PM on Sunday 23 Nov 2014 (Local Time) from KAUW Reporting Station
Moderate Fog Moderate Fog  
Wind Chill: 41°   Ceiling: 200
Heat Index: 46°   Visibility: 0.5mi
Dew Point: 46°   Wind: 10mph
Humidity: 100%   Direction: 170°S
Pressure: 29.46"   Gusts: NA
Location:  44.9438°N, 89.8335°W
Report Text: KAUW 231854Z AUTO 17009KT 1/2SM FG OVC002 08/08 A2946 RMK AO2 SLP986 T00780078
Loading
Personal Weather Stations






























Interactive Weather Map New forecast layout! Learn more

10-Day Weather Forecast

Advertisements
Track Severe Weather on mobile